createdAt,value
2019-02-17T00:03:38.427Z,13.40
2019-02-17T00:08:39.530Z,15.80
2019-02-17T00:13:40.623Z,11.37
2019-02-17T00:18:41.758Z,14.63
2019-02-17T00:23:42.843Z,15.60
2019-02-17T00:28:44.176Z,16.10
2019-02-17T00:33:46.146Z,13.97
2019-02-17T00:38:47.258Z,14.00
2019-02-17T00:43:48.372Z,14.07
2019-02-17T00:48:49.492Z,12.83
2019-02-17T00:53:50.707Z,12.73
2019-02-17T00:58:51.811Z,14.13
2019-02-17T01:03:52.903Z,16.37
2019-02-17T01:08:54.008Z,13.53
2019-02-17T01:13:55.099Z,13.47
2019-02-17T01:18:56.243Z,12.57
2019-02-17T01:23:57.335Z,13.10
2019-02-17T01:28:58.440Z,11.13
2019-02-17T01:34:08.355Z,13.43
2019-02-17T01:39:09.480Z,12.00
2019-02-17T01:44:10.595Z,14.17
2019-02-17T01:49:11.704Z,11.13
2019-02-17T01:54:12.836Z,10.27
2019-02-17T01:59:13.933Z,8.87
2019-02-17T02:04:15.140Z,10.60
2019-02-17T02:09:16.237Z,11.30
2019-02-17T02:14:17.344Z,7.83
2019-02-17T02:19:18.471Z,7.83
2019-02-17T02:24:19.561Z,10.70
2019-02-17T02:29:20.670Z,7.73
2019-02-17T02:34:21.759Z,7.57
2019-02-17T02:39:22.859Z,8.10
2019-02-17T02:44:23.977Z,7.20
2019-02-17T02:49:25.074Z,8.67
2019-02-17T02:54:26.259Z,8.47
2019-02-17T02:59:27.355Z,9.10
2019-02-17T03:04:28.498Z,7.57
2019-02-17T03:09:29.620Z,9.43
2019-02-17T03:14:30.924Z,8.30
2019-02-17T03:19:32.039Z,9.83
2019-02-17T03:24:33.136Z,6.87
2019-02-17T03:29:34.242Z,8.20
2019-02-17T03:34:35.352Z,8.73
2019-02-17T03:39:36.459Z,9.23
2019-02-17T03:44:37.564Z,7.93
2019-02-17T03:49:38.674Z,8.30
2019-02-17T03:54:39.764Z,7.77
2019-02-17T03:59:40.862Z,6.03
2019-02-17T04:04:41.946Z,6.30
2019-02-17T04:09:43.039Z,6.60
2019-02-17T04:14:44.150Z,7.60
2019-02-17T04:19:45.252Z,6.10
2019-02-17T04:24:46.339Z,6.90
2019-02-17T04:29:47.461Z,7.53
2019-02-17T04:34:48.544Z,8.53
2019-02-17T04:39:49.668Z,9.97
2019-02-17T04:44:50.907Z,7.93
2019-02-17T04:49:52.100Z,6.90
2019-02-17T04:54:53.411Z,6.63
2019-02-17T04:59:54.483Z,8.93
2019-02-17T05:04:55.591Z,9.70
2019-02-17T05:09:56.668Z,8.37
2019-02-17T05:14:57.755Z,9.30
2019-02-17T05:19:58.866Z,9.37
2019-02-17T05:24:59.962Z,8.47
2019-02-17T05:30:01.162Z,8.80
2019-02-17T05:35:03.657Z,6.63
2019-02-17T05:40:05.609Z,7.60
2019-02-17T05:45:07.790Z,7.83
2019-02-17T05:50:08.976Z,7.30
2019-02-17T05:55:10.075Z,9.83
2019-02-17T06:00:12.568Z,9.53
2019-02-17T06:05:13.660Z,15.70
2019-02-17T06:10:14.750Z,6.67
2019-02-17T06:15:15.864Z,14.17
2019-02-17T06:20:16.963Z,14.87
2019-02-17T06:25:18.073Z,21.67
2019-02-17T06:30:19.190Z,7.20
2019-02-17T06:35:20.287Z,8.63
2019-02-17T06:40:21.380Z,8.40
2019-02-17T06:45:22.625Z,9.67
2019-02-17T06:50:23.828Z,7.93
2019-02-17T06:55:29.596Z,6.67
2019-02-17T07:00:35.515Z,9.30
2019-02-17T07:05:38.596Z,9.93
2019-02-17T07:10:39.675Z,9.40
2019-02-17T07:15:40.788Z,11.77
2019-02-17T07:20:41.996Z,11.43
2019-02-17T07:25:43.088Z,18.70
2019-02-17T07:30:44.183Z,18.80
2019-02-17T07:35:45.275Z,13.77
2019-02-17T07:40:46.496Z,14.20
2019-02-17T07:45:47.623Z,17.10
2019-02-17T07:50:48.703Z,19.93
2019-02-17T07:55:49.912Z,15.57
2019-02-17T08:00:51.026Z,14.90
2019-02-17T08:05:52.213Z,36.87
2019-02-17T08:11:03.471Z,23.60
2019-02-17T08:15:56.354Z,15.77
2019-02-17T08:20:57.464Z,12.83
2019-02-17T08:25:58.559Z,20.17
2019-02-17T08:30:59.656Z,17.97
2019-02-17T08:36:00.770Z,15.30
2019-02-17T08:41:01.900Z,13.23
2019-02-17T08:46:03.134Z,10.60
2019-02-17T08:51:04.235Z,13.17
2019-02-17T08:56:05.340Z,12.70
2019-02-17T09:01:06.447Z,15.73
2019-02-17T09:06:07.548Z,17.53
2019-02-17T09:11:08.685Z,16.80
2019-02-17T09:16:09.814Z,16.23
2019-02-17T09:26:29.741Z,18.10
2019-02-17T09:31:31.018Z,17.40
2019-02-17T09:36:32.138Z,16.03
2019-02-17T09:41:33.238Z,18.67
2019-02-17T09:46:34.535Z,15.17
2019-02-17T09:51:35.647Z,15.30
2019-02-17T09:56:36.775Z,16.27
2019-02-17T10:01:37.884Z,15.17
2019-02-17T10:06:38.993Z,15.83
2019-02-17T10:11:40.408Z,15.00
2019-02-17T10:16:41.558Z,14.43
2019-02-17T10:21:42.673Z,13.53
2019-02-17T10:26:43.813Z,14.60
2019-02-17T10:31:44.941Z,11.73
2019-02-17T10:36:46.128Z,13.17
2019-02-17T10:41:47.347Z,14.37
2019-02-17T10:46:48.622Z,14.43
2019-02-17T10:51:49.869Z,13.30
2019-02-17T10:56:51.167Z,13.60
2019-02-17T11:01:52.272Z,16.50
2019-02-17T11:06:53.379Z,16.20
2019-02-17T11:11:54.473Z,14.00
2019-02-17T11:16:55.638Z,15.20
2019-02-17T11:21:56.749Z,16.27
2019-02-17T11:26:57.887Z,16.07
2019-02-17T11:31:59.011Z,15.30
2019-02-17T11:37:00.212Z,16.13
2019-02-17T11:42:01.428Z,15.13
2019-02-17T11:47:02.659Z,13.60
2019-02-17T11:52:03.862Z,13.10
2019-02-17T11:57:05.883Z,11.50
2019-02-17T12:02:07.020Z,16.63
2019-02-17T12:07:08.117Z,12.50
2019-02-17T12:12:09.326Z,13.60
2019-02-17T12:17:10.572Z,16.53
2019-02-17T12:22:13.871Z,13.67
2019-02-17T12:27:19.954Z,14.37
2019-02-17T12:32:23.022Z,15.23
2019-02-17T12:37:24.192Z,14.57
2019-02-17T12:42:25.311Z,14.33
2019-02-17T12:47:26.476Z,12.43
2019-02-17T12:52:27.785Z,14.87
2019-02-17T12:57:28.892Z,12.60
2019-02-17T13:02:30.017Z,12.40
2019-02-17T13:07:31.148Z,9.53
2019-02-17T13:12:32.276Z,9.70
2019-02-17T13:17:33.420Z,10.40
2019-02-17T13:22:34.520Z,9.50
2019-02-17T13:27:35.637Z,8.90
2019-02-17T13:32:36.748Z,9.77
2019-02-17T13:37:37.900Z,8.87
2019-02-17T13:42:38.984Z,7.13
2019-02-17T13:47:40.307Z,7.40
2019-02-17T13:52:41.614Z,7.58
2019-02-17T13:57:42.720Z,7.62
2019-02-17T14:02:43.841Z,6.90
2019-02-17T14:07:44.943Z,7.33
2019-02-17T14:12:46.160Z,6.50
2019-02-17T14:17:47.402Z,5.83
2019-02-17T14:22:48.532Z,4.87
2019-02-17T14:27:49.796Z,5.58
2019-02-17T14:32:50.916Z,7.17
2019-02-17T14:37:52.069Z,4.47
2019-02-17T14:42:55.350Z,4.83
2019-02-17T14:47:56.280Z,4.60
2019-02-17T14:52:57.375Z,4.58
2019-02-17T14:58:04.974Z,3.40
2019-02-17T15:03:01.517Z,5.97
2019-02-17T15:08:02.725Z,4.15
2019-02-17T15:13:03.862Z,4.75
2019-02-17T15:18:04.986Z,4.12
2019-02-17T15:23:06.088Z,4.03
2019-02-17T15:28:07.220Z,9.18
2019-02-17T15:33:08.365Z,11.08
2019-02-17T15:38:09.482Z,10.18
2019-02-17T15:43:10.610Z,8.85
2019-02-17T15:48:11.720Z,6.23
2019-02-17T15:53:12.845Z,11.30
2019-02-17T15:58:14.029Z,7.20
2019-02-17T16:03:15.153Z,9.77
2019-02-17T16:08:16.249Z,15.00
2019-02-17T16:13:17.529Z,11.93
2019-02-17T16:18:18.659Z,8.87
2019-02-17T16:23:19.768Z,10.80
2019-02-17T16:28:20.905Z,6.37
2019-02-17T16:33:22.049Z,15.50
2019-02-17T16:38:23.292Z,9.83
2019-02-17T16:43:24.438Z,11.87
2019-02-17T16:48:25.638Z,10.10
2019-02-17T16:53:26.770Z,18.50
2019-02-17T16:58:28.015Z,8.93
2019-02-17T17:03:29.335Z,10.20
2019-02-17T17:08:30.539Z,10.97
2019-02-17T17:13:31.683Z,11.80
2019-02-17T17:18:33.560Z,9.83
2019-02-17T17:23:34.725Z,14.97
2019-02-17T17:28:36.077Z,16.30
2019-02-17T17:33:37.266Z,20.50
2019-02-17T17:38:38.407Z,32.03
2019-02-17T17:43:39.663Z,37.17
2019-02-17T17:48:40.880Z,27.23
2019-02-17T17:53:42.108Z,38.87
2019-02-17T17:58:43.452Z,12.17
2019-02-17T18:03:44.590Z,24.37
2019-02-17T18:08:45.808Z,23.43
2019-02-17T18:13:46.909Z,24.50
2019-02-17T18:18:48.084Z,18.93
2019-02-17T18:23:49.195Z,12.87
2019-02-17T18:28:50.526Z,13.30
2019-02-17T18:33:51.674Z,23.07
2019-02-17T18:38:52.836Z,13.87
2019-02-17T18:43:54.180Z,11.90
2019-02-17T18:48:55.666Z,10.17
2019-02-17T18:53:56.969Z,7.10
2019-02-17T18:58:58.200Z,8.63
2019-02-17T19:03:59.461Z,6.13
2019-02-17T19:09:02.556Z,4.70
2019-02-17T19:14:03.880Z,6.50
2019-02-17T19:19:05.025Z,5.50
2019-02-17T19:24:06.157Z,3.87
2019-02-17T19:29:11.528Z,4.93
2019-02-17T19:34:10.366Z,4.23
2019-02-17T19:39:11.572Z,5.97
2019-02-17T19:44:12.801Z,6.20
2019-02-17T19:49:13.941Z,6.53
2019-02-17T19:54:15.183Z,7.57
2019-02-17T19:59:16.420Z,5.47
2019-02-17T20:04:25.534Z,6.27
2019-02-17T20:09:26.739Z,4.90
2019-02-17T20:14:27.965Z,7.30
2019-02-17T20:19:29.116Z,6.07
2019-02-17T20:24:30.247Z,7.23
2019-02-17T20:29:31.489Z,8.47
2019-02-17T20:34:32.573Z,8.60
2019-02-17T20:39:33.821Z,8.60
2019-02-17T20:44:35.047Z,5.90
2019-02-17T20:49:36.156Z,6.03
2019-02-17T20:54:37.272Z,4.70
2019-02-17T20:59:38.419Z,5.23
2019-02-17T21:04:39.635Z,12.60
2019-02-17T21:09:40.742Z,16.37
2019-02-17T21:14:41.956Z,5.00
2019-02-17T21:19:43.182Z,5.83
2019-02-17T21:24:44.355Z,6.23
2019-02-17T21:29:45.634Z,4.17
2019-02-17T21:34:46.765Z,3.40
2019-02-17T21:39:47.878Z,3.53
2019-02-17T21:44:48.992Z,4.57
2019-02-17T21:49:50.133Z,3.43
2019-02-17T21:54:51.338Z,5.30
2019-02-17T21:59:52.456Z,6.37
2019-02-17T22:04:53.580Z,5.43
2019-02-17T22:09:54.673Z,10.07
2019-02-17T22:14:55.820Z,10.63
2019-02-17T22:19:56.943Z,5.93
2019-02-17T22:24:58.030Z,5.03
2019-02-17T22:29:59.127Z,4.40
2019-02-17T22:35:00.363Z,4.77
2019-02-17T22:40:02.141Z,3.47
2019-02-17T22:45:06.353Z,3.90
2019-02-17T22:50:14.343Z,4.27
2019-02-17T22:55:15.534Z,4.73
2019-02-17T23:00:39.710Z,5.23
2019-02-17T23:05:41.023Z,3.00
2019-02-17T23:10:42.127Z,3.73
2019-02-17T23:15:43.250Z,2.90
2019-02-17T23:20:44.474Z,4.10
2019-02-17T23:25:45.579Z,3.60
2019-02-17T23:30:46.689Z,2.97
2019-02-17T23:35:47.786Z,2.33
2019-02-17T23:40:48.881Z,6.27
2019-02-17T23:45:50.006Z,4.53
2019-02-17T23:50:51.118Z,2.27
2019-02-17T23:55:52.227Z,3.60
